Time;durP1;ratioP1;P1;durP2;ratioP2;P2;SDS_P1;SDS_P2;PMS_P1;PMS_P2;Temp;Humidity;BMP_temperature;BMP_pressure;BME280_temperature;BME280_humidity;BME280_pressure;Samples;Min_cycle;Max_cycle;Signal;HPM_P1;HPM_P2
2023/05/23 00:01:06;;;;;;;8.50;7.70;;;;;;;13.25;100.00;100959.22;6089735;23;20116;-73
2023/05/23 00:03:34;;;;;;;9.93;8.90;;;;;;;14.52;100.00;101161.84;6091244;23;20062;-73
2023/05/23 00:06:01;;;;;;;8.57;7.68;;;;;;;14.51;100.00;101168.03;6116745;23;20033;-74
2023/05/23 00:08:27;;;;;;;9.45;8.07;;;;;;;12.32;100.00;100817.13;6109633;23;20163;-73
2023/05/23 00:10:54;;;;;;;9.23;8.20;;;;;;;14.08;100.00;101112.59;6103545;23;20041;-73
2023/05/23 00:13:20;;;;;;;8.18;7.38;;;;;;;13.52;100.00;101012.16;6111608;23;20057;-73
2023/05/23 00:15:47;;;;;;;9.38;8.00;;;;;;;14.53;100.00;101163.50;6088404;23;20020;-73
2023/05/23 00:18:15;;;;;;;12.40;8.52;;;;;;;14.27;100.00;101123.72;6093543;23;20025;-73
2023/05/23 00:20:42;;;;;;;8.38;7.63;;;;;;;14.65;100.00;101176.00;6114638;23;20037;-73
2023/05/23 00:23:12;;;;;;;8.50;7.70;;;;;;;14.54;100.00;101158.16;6087503;23;20036;-73
2023/05/23 00:25:39;;;;;;;8.30;7.65;;;;;;;14.33;100.00;101094.31;6107809;23;20362;-73
2023/05/23 00:28:07;;;;;;;11.15;8.27;;;;;;;14.03;100.00;101069.78;6114297;23;20085;-73
2023/05/23 00:30:33;;;;;;;11.00;7.75;;;;;;;14.68;100.00;101154.69;6108250;23;20033;-73
2023/05/23 00:33:00;;;;;;;10.18;7.85;;;;;;;14.92;100.00;101180.53;6078432;23;20037;-73
2023/05/23 00:35:27;;;;;;;9.00;7.57;;;;;;;14.96;100.00;101182.88;6110876;23;20547;-73
2023/05/23 00:37:54;;;;;;;8.52;7.68;;;;;;;14.99;100.00;101180.97;6116537;23;20017;-73
2023/05/23 00:40:21;;;;;;;9.80;8.77;;;;;;;14.82;100.00;101145.91;6105992;23;20098;-74
2023/05/23 00:42:47;;;;;;;11.45;8.75;;;;;;;14.39;100.00;101094.84;6116490;23;20041;-72
2023/05/23 00:45:15;;;;;;;9.20;8.32;;;;;;;14.81;100.00;101152.13;6111107;23;20029;-72
2023/05/23 00:47:43;;;;;;;8.40;7.57;;;;;;;14.95;100.00;101164.47;6117253;23;20550;-72
2023/05/23 00:50:13;;;;;;;10.07;8.55;;;;;;;14.61;100.00;101115.53;6106621;23;20036;-73
2023/05/23 00:52:41;;;;;;;8.70;7.90;;;;;;;14.71;100.00;101132.50;6114938;23;20432;-73
2023/05/23 00:55:08;;;;;;;9.25;7.55;;;;;;;15.10;100.00;101195.22;6089129;23;20769;-73
2023/05/23 00:57:39;;;;;;;9.55;7.75;;;;;;;15.10;100.00;101189.94;6119985;23;20029;-73
2023/05/23 01:00:18;;;;;;;8.68;7.93;;;;;;;15.15;100.00;101192.28;6089025;23;20077;-73
2023/05/23 01:02:46;;;;;;;11.20;7.78;;;;;;;15.13;100.00;101181.81;6121954;23;20032;-72
2023/05/23 01:05:16;;;;;;;8.63;7.82;;;;;;;14.45;100.00;101102.41;6086146;23;20013;-73
2023/05/23 01:07:44;;;;;;;7.80;7.10;;;;;;;14.57;100.00;101128.06;6114168;23;20082;-72
2023/05/23 01:10:11;;;;;;;9.95;7.35;;;;;;;14.61;100.00;101137.50;6090488;23;20730;-73
2023/05/23 01:13:19;;;;;;;8.40;7.53;;;;;;;15.04;100.00;101208.00;6111941;23;20040;-72
2023/05/23 01:15:55;;;;;;;7.68;7.07;;;;;;;14.98;100.00;101209.22;6092626;23;20029;-71
2023/05/23 01:18:42;;;;;;;8.00;7.18;;;;;;;14.44;100.00;101133.25;6090762;23;20034;-71
2023/05/23 01:21:14;;;;;;;7.55;6.50;;;;;;;14.49;100.00;101141.75;6090368;23;20021;-72
2023/05/23 01:24:06;;;;;;;6.93;6.15;;;;;;;14.85;100.00;101210.91;6084805;23;20469;-71
2023/05/23 01:26:40;;;;;;;7.35;6.65;;;;;;;14.79;100.00;101201.56;6117797;23;20092;-73
2023/05/23 01:29:10;;;;;;;6.65;6.15;;;;;;;14.83;100.00;101213.66;6113411;23;20502;-72
2023/05/23 01:31:43;;;;;;;5.93;5.53;;;;;;;14.78;100.00;101191.13;6121971;23;20654;-72
2023/05/23 01:34:12;;;;;;;10.93;6.32;;;;;;;14.82;100.00;101196.09;6130873;23;20030;-72
2023/05/23 01:36:42;;;;;;;6.65;6.25;;;;;;;14.65;99.89;101165.44;6130884;23;20049;-72
2023/05/23 01:39:10;;;;;;;6.40;6.00;;;;;;;14.87;99.71;101204.59;6114738;23;20021;-72
2023/05/23 01:41:37;;;;;;;6.38;5.90;;;;;;;14.87;99.14;101201.94;6116064;23;20433;-71
2023/05/23 01:44:04;;;;;;;6.45;6.03;;;;;;;14.47;100.00;101140.13;6083670;23;20794;-72
2023/05/23 01:46:33;;;;;;;6.22;5.82;;;;;;;14.72;99.94;101181.78;6119369;23;20639;-72
2023/05/23 01:49:02;;;;;;;6.68;6.18;;;;;;;14.80;99.92;101207.72;6116260;23;20389;-72
2023/05/23 01:51:29;;;;;;;6.40;6.00;;;;;;;14.77;100.00;101200.81;6119379;23;20045;-72
2023/05/23 01:53:56;;;;;;;6.43;5.93;;;;;;;14.79;99.68;101206.84;6090817;23;20515;-71
2023/05/23 01:56:23;;;;;;;6.53;6.13;;;;;;;14.77;99.15;101203.47;6114717;23;20644;-71
2023/05/23 01:58:50;;;;;;;6.03;5.72;;;;;;;14.50;100.00;101161.91;6086547;23;20097;-71
2023/05/23 02:01:16;;;;;;;6.25;5.85;;;;;;;14.38;99.85;101143.34;6119122;23;20040;-71
2023/05/23 02:03:43;;;;;;;6.28;5.80;;;;;;;14.73;99.89;101208.09;6119181;23;20034;-71
2023/05/23 02:06:10;;;;;;;6.43;6.03;;;;;;;14.77;100.00;101208.75;6114629;23;20032;-71
2023/05/23 02:08:36;;;;;;;7.10;6.40;;;;;;;14.59;100.00;101186.94;6096975;23;20120;-71
2023/05/23 02:11:03;;;;;;;6.60;6.20;;;;;;;14.70;100.00;101221.50;6118508;23;20025;-72
2023/05/23 02:13:30;;;;;;;6.68;6.18;;;;;;;14.69;100.00;101235.66;6090491;23;20030;-72
2023/05/23 02:15:56;;;;;;;6.57;6.18;;;;;;;14.65;100.00;101207.69;6109721;23;20693;-72
2023/05/23 02:18:25;;;;;;;7.07;6.57;;;;;;;14.63;100.00;101221.94;6116768;23;20496;-72
2023/05/23 02:20:51;;;;;;;7.00;6.40;;;;;;;14.65;100.00;101225.34;6113021;23;20029;-73
2023/05/23 02:23:18;;;;;;;6.03;5.72;;;;;;;14.66;100.00;101227.91;6117843;23;20045;-73
2023/05/23 02:25:44;;;;;;;6.60;6.20;;;;;;;13.56;100.00;101037.41;6106236;23;20685;-73
2023/05/23 02:28:11;;;;;;;7.28;6.57;;;;;;;14.63;100.00;101222.78;6085902;23;20022;-73
2023/05/23 02:30:38;;;;;;;6.60;6.10;;;;;;;14.51;100.00;101191.81;6117483;23;20017;-72
2023/05/23 02:33:05;;;;;;;6.75;6.25;;;;;;;14.35;100.00;101179.56;6095651;23;20470;-73
2023/05/23 02:35:32;;;;;;;6.50;6.03;;;;;;;14.63;100.00;101229.88;6110447;23;20018;-73
2023/05/23 02:37:59;;;;;;;7.35;6.68;;;;;;;14.55;100.00;101235.59;6076230;23;20440;-72
2023/05/23 02:40:26;;;;;;;7.20;6.55;;;;;;;14.20;100.00;101185.75;6112979;23;20024;-73
2023/05/23 02:42:52;;;;;;;6.38;5.88;;;;;;;14.30;100.00;101188.69;6097209;23;20012;-73
2023/05/23 02:45:18;;;;;;;6.88;6.35;;;;;;;13.23;100.00;101019.97;6110936;23;20036;-73
2023/05/23 02:47:45;;;;;;;7.35;6.75;;;;;;;14.55;100.00;101247.03;6071708;23;20085;-72
2023/05/23 02:50:12;;;;;;;7.45;6.85;;;;;;;14.58;100.00;101250.44;6087459;23;20037;-73
2023/05/23 02:52:38;;;;;;;7.57;6.97;;;;;;;14.59;100.00;101250.34;6101379;23;20041;-71
2023/05/23 02:55:05;;;;;;;7.22;6.57;;;;;;;14.59;100.00;101247.69;6111571;23;20033;-72
2023/05/23 02:57:32;;;;;;;7.43;6.82;;;;;;;14.21;100.00;101187.44;6116459;23;20120;-72
2023/05/23 02:59:58;;;;;;;8.57;7.72;;;;;;;14.24;100.00;101189.06;6107939;23;20030;-73
2023/05/23 03:02:25;;;;;;;9.88;7.15;;;;;;;13.87;100.00;101127.88;6118999;23;20708;-72
2023/05/23 03:04:52;;;;;;;7.90;7.20;;;;;;;13.96;100.00;101154.59;6111821;23;20041;-73
2023/05/23 03:07:18;;;;;;;7.10;6.50;;;;;;;14.54;100.00;101255.03;6094938;23;20059;-72
2023/05/23 03:09:53;;;;;;;9.93;7.35;;;;;;;14.53;100.00;101251.53;6115902;23;20098;-73
2023/05/23 03:12:19;;;;;;;9.32;7.40;;;;;;;14.06;100.00;101196.28;6093275;23;20671;-72
2023/05/23 03:14:46;;;;;;;8.60;7.25;;;;;;;14.42;100.00;101250.50;6086478;23;20051;-72
2023/05/23 03:17:12;;;;;;;7.97;7.07;;;;;;;14.24;100.00;101229.50;6119018;23;20036;-73
2023/05/23 03:19:39;;;;;;;8.73;7.18;;;;;;;13.90;100.00;101178.69;6086463;23;20041;-73
2023/05/23 03:22:05;;;;;;;7.78;7.10;;;;;;;13.98;100.00;101193.25;6112490;23;20021;-73
2023/05/23 03:24:32;;;;;;;9.13;6.88;;;;;;;14.33;100.00;101268.56;6113774;23;20033;-73
2023/05/23 03:27:00;;;;;;;7.60;7.00;;;;;;;14.21;100.00;101248.16;6095878;23;20542;-72
2023/05/23 03:29:26;;;;;;;7.43;6.82;;;;;;;14.40;100.00;101262.94;6116415;23;20053;-74
2023/05/23 03:31:53;;;;;;;8.07;7.30;;;;;;;14.11;100.00;101241.72;6070853;23;20006;-73
2023/05/23 03:34:19;;;;;;;9.85;7.00;;;;;;;14.32;100.00;101256.28;6117535;23;20025;-73
2023/05/23 03:36:46;;;;;;;10.65;7.78;;;;;;;14.33;100.00;101262.41;6089339;23;20029;-73
2023/05/23 03:39:12;;;;;;;8.00;7.28;;;;;;;13.96;100.00;101225.84;6107240;23;20627;-73
2023/05/23 03:41:39;;;;;;;8.15;7.38;;;;;;;14.25;100.00;101272.59;6090600;23;20021;-73
2023/05/23 03:44:05;;;;;;;7.13;6.60;;;;;;;13.75;100.00;101192.78;6089115;23;20029;-73
2023/05/23 03:46:32;;;;;;;7.47;6.93;;;;;;;13.77;100.00;101204.94;6115566;23;20025;-78
2023/05/23 03:48:58;;;;;;;8.13;7.35;;;;;;;13.72;100.00;101185.88;6091539;23;20483;-77
2023/05/23 03:51:25;;;;;;;7.43;6.72;;;;;;;14.13;100.00;101251.25;6117667;23;20096;-77
2023/05/23 03:53:51;;;;;;;7.05;6.35;;;;;;;13.04;100.00;101075.50;6106835;23;20033;-77
2023/05/23 03:56:18;;;;;;;7.97;6.68;;;;;;;14.02;100.00;101239.63;6113273;23;20029;-77
2023/05/23 03:58:44;;;;;;;7.53;6.95;;;;;;;13.61;100.00;101174.25;6086024;23;20018;-78
2023/05/23 04:01:11;;;;;;;7.13;6.53;;;;;;;14.11;100.00;101247.00;6091620;23;20041;-77
2023/05/23 04:03:37;;;;;;;7.03;6.43;;;;;;;14.29;100.00;101276.75;6116334;23;20564;-77
2023/05/23 04:06:04;;;;;;;7.25;6.75;;;;;;;13.95;100.00;101233.84;6092846;23;20028;-76
2023/05/23 04:08:32;;;;;;;7.15;6.55;;;;;;;13.17;100.00;101110.78;6114821;23;20512;-78
2023/05/23 04:11:00;;;;;;;7.07;6.47;;;;;;;13.67;100.00;101224.88;6085217;23;20062;-77
2023/05/23 04:13:27;;;;;;;10.10;7.05;;;;;;;14.22;100.00;101299.19;6087474;23;20042;-77
2023/05/23 04:15:55;;;;;;;7.40;6.80;;;;;;;13.56;100.00;101203.53;6116014;23;20044;-77
2023/05/23 04:18:22;;;;;;;6.53;6.00;;;;;;;13.01;100.00;101109.94;6114778;23;20033;-76
2023/05/23 04:20:48;;;;;;;9.63;6.15;;;;;;;14.23;100.00;101304.38;6112361;23;20028;-76
2023/05/23 04:23:15;;;;;;;7.60;6.90;;;;;;;13.32;100.00;101169.69;6085896;23;20482;-77
2023/05/23 04:25:41;;;;;;;6.95;6.28;;;;;;;13.82;100.00;101254.81;6116010;23;20014;-77
2023/05/23 04:28:10;;;;;;;7.30;6.55;;;;;;;14.10;100.00;101324.50;6082734;23;20087;-74
2023/05/23 04:30:37;;;;;;;6.97;6.30;;;;;;;13.55;100.00;101222.91;6113261;23;20020;-77
2023/05/23 04:33:03;;;;;;;6.88;6.22;;;;;;;13.95;100.00;101299.81;6092405;23;20026;-76
2023/05/23 04:35:33;;;;;;;7.07;6.35;;;;;;;14.04;100.00;101309.00;6116998;23;20084;-76
2023/05/23 04:38:00;;;;;;;7.68;6.78;;;;;;;13.25;100.00;101165.69;6086667;23;20022;-76
2023/05/23 04:40:28;;;;;;;7.70;6.93;;;;;;;14.08;100.00;101316.66;6114540;23;20067;-76
2023/05/23 04:42:55;;;;;;;11.40;6.85;;;;;;;14.10;100.00;101321.84;6101949;23;20030;-76
2023/05/23 04:45:22;;;;;;;10.68;7.05;;;;;;;13.50;100.00;101233.72;6112258;23;20047;-77
2023/05/23 04:47:48;;;;;;;6.78;6.28;;;;;;;13.69;100.00;101243.22;6098620;23;20089;-76
2023/05/23 04:50:15;;;;;;;6.75;6.15;;;;;;;14.01;100.00;101310.03;6116927;23;20947;-75
2023/05/23 04:52:42;;;;;;;7.47;6.88;;;;;;;13.73;100.00;101274.66;6096013;23;20647;-76
2023/05/23 04:55:08;;;;;;;7.65;6.32;;;;;;;14.14;100.00;101329.50;6118437;23;20648;-75
2023/05/23 04:57:36;;;;;;;8.45;6.55;;;;;;;14.04;100.00;101325.69;6123602;23;20080;-76
2023/05/23 05:00:09;;;;;;;7.28;6.78;;;;;;;13.81;100.00;101305.88;6117396;23;20044;-75
2023/05/23 05:02:36;;;;;;;8.25;6.65;;;;;;;13.88;100.00;101285.28;6120162;23;20029;-76
2023/05/23 05:05:06;;;;;;;7.57;6.88;;;;;;;13.90;100.00;101286.88;6116035;23;20108;-76
2023/05/23 05:07:34;;;;;;;7.40;6.80;;;;;;;13.72;100.00;101266.81;6089478;23;20623;-77
2023/05/23 05:10:01;;;;;;;8.00;7.20;;;;;;;13.39;100.00;101211.53;6105118;23;20049;-76
2023/05/23 05:12:28;;;;;;;7.72;7.15;;;;;;;14.14;100.00;101341.84;6092000;23;20081;-78
2023/05/23 05:14:54;;;;;;;7.07;6.43;;;;;;;13.90;100.00;101292.16;6091487;23;20022;-75
2023/05/23 05:17:20;;;;;;;6.97;6.22;;;;;;;13.78;100.00;101284.94;6115118;23;20053;-76
2023/05/23 05:19:47;;;;;;;7.35;6.65;;;;;;;14.19;100.00;101336.31;6117669;23;20032;-75
2023/05/23 05:22:14;;;;;;;9.55;6.85;;;;;;;14.10;100.00;101351.72;6116203;23;20110;-77
2023/05/23 05:24:40;;;;;;;6.25;5.65;;;;;;;14.08;100.00;101355.41;6119825;23;20037;-77
2023/05/23 05:27:08;;;;;;;9.20;6.55;;;;;;;13.31;100.00;101223.38;6088410;23;20602;-75
2023/05/23 05:29:35;;;;;;;6.88;6.38;;;;;;;13.68;100.00;101300.41;6117239;23;20058;-76
2023/05/23 05:32:02;;;;;;;7.38;6.75;;;;;;;13.57;100.00;101276.44;6094095;23;20010;-76
2023/05/23 05:34:28;;;;;;;7.40;6.70;;;;;;;13.72;100.00;101309.88;6118450;23;20545;-76
2023/05/23 05:36:55;;;;;;;10.50;7.60;;;;;;;13.52;100.00;101286.38;6095302;23;20493;-75
2023/05/23 05:39:24;;;;;;;7.95;7.38;;;;;;;13.83;100.00;101333.03;6090221;23;20566;-76
2023/05/23 05:41:51;;;;;;;7.72;7.00;;;;;;;12.82;100.00;101152.22;6117525;23;20063;-76
2023/05/23 05:44:17;;;;;;;8.13;7.35;;;;;;;13.49;100.00;101268.97;6077699;23;20032;-76
2023/05/23 05:46:44;;;;;;;7.80;7.10;;;;;;;13.80;100.00;101327.91;6116392;23;20334;-76
2023/05/23 05:49:10;;;;;;;9.38;7.50;;;;;;;14.00;100.00;101352.34;6115583;23;20037;-78
2023/05/23 05:51:38;;;;;;;7.70;7.10;;;;;;;13.64;100.00;101290.13;6111968;23;20083;-76
2023/05/23 05:54:04;;;;;;;7.80;7.03;;;;;;;14.21;100.00;101387.22;6094211;23;20029;-76
2023/05/23 05:56:31;;;;;;;10.45;6.80;;;;;;;13.53;100.00;101272.25;6112913;23;20036;-75
2023/05/23 05:58:58;;;;;;;7.75;6.70;;;;;;;13.81;100.00;101315.56;6066031;23;20037;-77
2023/05/23 06:01:25;;;;;;;7.32;6.63;;;;;;;14.22;100.00;101386.28;6115702;23;20664;-76
2023/05/23 06:03:52;;;;;;;7.65;6.95;;;;;;;14.29;100.00;101385.00;6120149;23;20021;-77
2023/05/23 06:06:19;;;;;;;7.25;6.63;;;;;;;14.34;100.00;101385.59;6091797;23;20041;-75
2023/05/23 06:08:45;;;;;;;7.68;6.82;;;;;;;14.29;100.00;101391.16;6115987;23;20533;-76
2023/05/23 06:11:12;;;;;;;7.68;7.03;;;;;;;14.23;100.00;101362.47;6110151;23;20018;-76
2023/05/23 06:13:38;;;;;;;7.05;6.40;;;;;;;14.01;100.00;101340.84;6090556;23;20674;-76
2023/05/23 06:16:05;;;;;;;7.65;6.95;;;;;;;14.23;100.00;101370.38;6092881;23;20009;-76
2023/05/23 06:18:32;;;;;;;8.88;7.13;;;;;;;14.30;100.00;101381.44;6119900;23;20660;-76
2023/05/23 06:20:59;;;;;;;7.32;6.68;;;;;;;14.02;100.00;101343.38;6112291;23;20048;-76
2023/05/23 06:23:25;;;;;;;6.65;6.00;;;;;;;13.63;100.00;101278.75;6089299;23;20038;-77
2023/05/23 06:25:52;;;;;;;7.90;7.07;;;;;;;13.68;100.00;101296.94;6115514;23;20075;-76
2023/05/23 06:28:18;;;;;;;6.35;5.85;;;;;;;13.34;100.00;101236.38;6114336;23;20637;-75
2023/05/23 06:30:45;;;;;;;7.57;6.50;;;;;;;14.09;100.00;101373.78;6071100;23;20010;-75
2023/05/23 06:33:11;;;;;;;7.22;6.57;;;;;;;14.40;100.00;101401.09;6126913;23;20033;-77
2023/05/23 06:35:38;;;;;;;9.20;6.50;;;;;;;13.91;100.00;101330.81;6111893;23;20032;-77
2023/05/23 06:38:05;;;;;;;7.47;6.57;;;;;;;13.64;100.00;101261.97;6095243;23;20046;-76
2023/05/23 06:40:31;;;;;;;7.00;6.40;;;;;;;13.95;100.00;101305.94;6116226;23;20042;-76
2023/05/23 06:42:58;;;;;;;9.77;6.85;;;;;;;14.24;100.00;101345.66;6067614;23;20080;-76
2023/05/23 06:45:24;;;;;;;9.20;6.97;;;;;;;14.01;100.00;101312.69;6110716;23;20539;-76
2023/05/23 06:47:51;;;;;;;7.95;7.15;;;;;;;14.06;100.00;101331.72;6088730;23;20030;-77
2023/05/23 06:50:20;;;;;;;7.47;6.78;;;;;;;14.05;100.00;101308.94;6113493;23;20009;-76
2023/05/23 06:52:47;;;;;;;8.27;7.00;;;;;;;14.35;100.00;101367.03;6116459;23;20025;-76
2023/05/23 06:55:17;;;;;;;14.85;7.00;;;;;;;14.67;100.00;101417.19;6085037;23;20026;-77
2023/05/23 06:57:49;;;;;;;7.32;6.75;;;;;;;14.59;100.00;101423.84;6116924;23;20015;-76
2023/05/23 07:00:16;;;;;;;7.57;6.88;;;;;;;14.43;100.00;101394.78;6085231;23;20021;-77
2023/05/23 07:02:44;;;;;;;7.28;6.57;;;;;;;14.12;100.00;101349.00;6120162;23;20026;-76
2023/05/23 07:05:11;;;;;;;9.55;7.03;;;;;;;14.70;100.00;101424.91;6110433;23;20080;-77
2023/05/23 07:07:38;;;;;;;10.43;7.82;;;;;;;14.20;100.00;101362.63;6092639;23;20026;-76
2023/05/23 07:10:05;;;;;;;7.15;6.45;;;;;;;14.61;100.00;101425.44;6088778;23;20030;-76
2023/05/23 07:12:32;;;;;;;16.55;7.07;;;;;;;14.84;100.00;101429.41;6108989;23;20030;-76
2023/05/23 07:15:00;;;;;;;7.22;6.53;;;;;;;14.70;100.00;101392.38;6085931;23;20081;-77
2023/05/23 07:17:28;;;;;;;8.18;7.38;;;;;;;14.99;100.00;101438.22;6114609;23;20114;-76
2023/05/23 07:19:55;;;;;;;7.07;6.57;;;;;;;14.65;100.00;101384.69;6084107;23;20029;-76
2023/05/23 07:22:21;;;;;;;7.90;7.20;;;;;;;14.59;100.00;101363.06;6117551;23;20025;-76
2023/05/23 07:24:48;;;;;;;7.18;6.68;;;;;;;14.83;100.00;101411.84;6113180;23;20026;-76
2023/05/23 07:27:14;;;;;;;7.03;6.38;;;;;;;14.60;100.00;101376.19;6095559;23;20045;-75
2023/05/23 07:29:41;;;;;;;7.20;6.68;;;;;;;14.94;100.00;101427.91;6082881;23;20068;-76
2023/05/23 07:32:07;;;;;;;10.70;7.30;;;;;;;14.83;99.66;101424.19;6074688;23;20044;-76
2023/05/23 07:34:34;;;;;;;7.60;6.90;;;;;;;14.15;99.43;101303.94;6113058;23;20021;-75
2023/05/23 07:37:00;;;;;;;6.93;6.10;;;;;;;14.57;99.55;101376.38;6103114;23;20030;-75
2023/05/23 07:39:27;;;;;;;10.10;6.90;;;;;;;13.65;99.15;101218.84;6087100;23;20080;-76
2023/05/23 07:41:53;;;;;;;7.22;6.43;;;;;;;15.05;97.30;101440.50;6090833;23;20026;-75
2023/05/23 07:44:20;;;;;;;7.32;6.75;;;;;;;14.79;96.73;101402.38;6089564;23;20053;-76
2023/05/23 07:46:50;;;;;;;7.30;6.70;;;;;;;14.96;96.00;101412.81;6115344;23;20029;-76
2023/05/23 07:49:19;;;;;;;7.03;6.43;;;;;;;14.83;95.57;101403.91;6099456;23;20049;-75
2023/05/23 07:51:46;;;;;;;7.00;6.50;;;;;;;14.73;97.13;101405.38;6114308;23;20036;-75
2023/05/23 07:54:12;;;;;;;8.10;6.00;;;;;;;14.46;97.54;101370.84;6094180;23;20101;-75
2023/05/23 07:56:42;;;;;;;7.00;6.50;;;;;;;14.49;97.20;101381.22;6114693;23;20026;-75
2023/05/23 07:59:08;;;;;;;14.38;6.78;;;;;;;14.42;96.90;101362.25;6092454;23;20041;-75
2023/05/23 08:01:35;;;;;;;6.63;6.05;;;;;;;14.71;96.77;101424.00;6109873;23;20021;-75
2023/05/23 08:04:02;;;;;;;7.43;6.70;;;;;;;14.86;96.36;101439.91;6115864;23;20083;-76
2023/05/23 08:06:32;;;;;;;7.65;6.75;;;;;;;14.65;95.57;101411.13;6117931;23;20091;-75
2023/05/23 08:08:59;;;;;;;7.50;6.82;;;;;;;13.84;96.89;101287.22;6089735;23;20041;-76
2023/05/23 08:11:27;;;;;;;13.18;7.22;;;;;;;14.81;97.57;101447.22;6091094;23;20037;-75
2023/05/23 08:13:54;;;;;;;7.03;6.25;;;;;;;14.59;98.30;101456.38;6116762;23;20693;-76
2023/05/23 08:16:21;;;;;;;13.88;7.28;;;;;;;14.59;100.00;101469.59;6088706;23;20096;-75
2023/05/23 08:18:48;;;;;;;9.70;7.00;;;;;;;14.20;100.00;101418.06;6119863;23;20025;-76
2023/05/23 08:21:14;;;;;;;7.57;6.97;;;;;;;14.34;100.00;101443.69;6093913;23;20037;-76
2023/05/23 08:23:41;;;;;;;6.70;6.18;;;;;;;14.58;100.00;101465.25;6117416;23;20032;-78
2023/05/23 08:26:07;;;;;;;8.70;7.85;;;;;;;14.72;99.49;101467.97;6119250;23;20667;-76
2023/05/23 08:28:34;;;;;;;6.90;6.40;;;;;;;14.74;97.07;101444.94;6115809;23;20069;-75
2023/05/23 08:31:02;;;;;;;7.43;6.72;;;;;;;14.13;96.11;101314.63;6124171;23;20014;-76
2023/05/23 08:33:28;;;;;;;6.75;6.25;;;;;;;14.88;96.12;101449.44;6107541;23;20089;-75
2023/05/23 08:35:55;;;;;;;13.75;6.75;;;;;;;14.49;95.35;101376.81;6096779;23;20793;-76
2023/05/23 08:38:21;;;;;;;8.25;6.35;;;;;;;14.42;94.21;101409.78;6115035;23;20082;-76
2023/05/23 08:40:53;;;;;;;11.05;7.03;;;;;;;14.82;93.63;101456.88;6088027;23;20207;-77
2023/05/23 08:43:19;;;;;;;8.32;6.10;;;;;;;14.13;92.61;101348.94;6108421;23;20025;-77
2023/05/23 08:45:47;;;;;;;19.25;6.55;;;;;;;14.76;92.65;101440.41;6083945;23;20018;-74
2023/05/23 08:48:17;;;;;;;8.65;6.05;;;;;;;14.85;93.73;101467.25;6107381;23;20421;-74
2023/05/23 08:50:46;;;;;;;9.80;7.03;;;;;;;14.90;95.84;101489.00;6114014;23;20022;-74
2023/05/23 08:53:19;;;;;;;8.98;6.70;;;;;;;14.63;94.87;101457.06;6087883;23;20065;-74
2023/05/23 08:55:47;;;;;;;10.05;6.90;;;;;;;14.24;95.24;101402.91;6110980;23;20267;-76
2023/05/23 08:58:14;;;;;;;14.40;6.95;;;;;;;14.60;96.20;101487.16;6095015;23;20414;-76
2023/05/23 09:00:42;;;;;;;11.40;6.63;;;;;;;14.66;95.72;101494.72;6114666;23;20536;-76
2023/05/23 09:03:11;;;;;;;8.27;6.68;;;;;;;14.09;96.36;101441.53;6092218;23;20108;-75
2023/05/23 09:05:37;;;;;;;7.35;6.70;;;;;;;13.83;97.40;101413.94;6119984;23;20835;-75
2023/05/23 09:08:04;;;;;;;14.07;7.70;;;;;;;13.62;97.62;101371.13;6082923;23;20056;-76
2023/05/23 09:10:31;;;;;;;9.25;6.55;;;;;;;13.74;97.87;101373.94;6097782;23;20043;-77
2023/05/23 09:12:57;;;;;;;6.53;6.03;;;;;;;14.45;96.39;101498.53;6119913;23;20666;-75
2023/05/23 09:15:26;;;;;;;7.75;7.05;;;;;;;13.93;96.33;101450.31;6124038;23;20107;-76
2023/05/23 09:17:52;;;;;;;8.95;6.47;;;;;;;14.20;96.40;101504.34;6100869;23;20096;-76
2023/05/23 09:20:19;;;;;;;9.10;6.65;;;;;;;14.07;98.07;101485.66;6120822;23;20055;-75
2023/05/23 09:22:48;;;;;;;9.30;6.45;;;;;;;13.64;98.03;101441.31;6092007;23;20040;-74
2023/05/23 09:25:15;;;;;;;8.13;6.57;;;;;;;13.87;98.55;101468.25;6117683;23;20025;-74
2023/05/23 09:27:44;;;;;;;11.93;7.53;;;;;;;14.44;97.33;101528.53;6094931;23;20025;-76
2023/05/23 09:30:14;;;;;;;7.00;6.50;;;;;;;14.67;95.61;101496.44;6112502;23;20105;-75
2023/05/23 09:32:41;;;;;;;6.53;5.93;;;;;;;15.43;94.07;101553.72;6096292;23;20441;-74
2023/05/23 09:35:12;;;;;;;7.20;6.60;;;;;;;15.27;90.90;101492.94;6112443;23;20056;-76
2023/05/23 09:37:44;;;;;;;7.40;6.32;;;;;;;15.16;88.79;101490.13;6095410;23;20107;-75
2023/05/23 09:40:15;;;;;;;16.08;7.15;;;;;;;14.63;89.17;101476.41;6086297;23;20021;-75
2023/05/23 09:42:46;;;;;;;6.90;6.18;;;;;;;14.30;91.43;101487.88;6109298;23;20016;-75
2023/05/23 09:45:14;;;;;;;7.47;6.47;;;;;;;13.28;92.57;101375.53;6087914;23;20018;-75
2023/05/23 09:47:51;;;;;;;7.00;5.80;;;;;;;13.64;94.25;101474.75;6116317;23;20033;-76
2023/05/23 09:50:19;;;;;;;6.72;6.22;;;;;;;13.82;95.79;101512.50;6116827;23;20013;-74
2023/05/23 09:52:46;;;;;;;6.20;5.80;;;;;;;12.87;94.80;101353.03;6123967;23;20030;-75
2023/05/23 09:55:13;;;;;;;8.30;6.13;;;;;;;13.79;95.00;101523.22;6115580;23;20052;-74
2023/05/23 09:57:41;;;;;;;9.55;6.20;;;;;;;13.74;95.19;101516.41;6091753;23;20115;-74
2023/05/23 10:00:12;;;;;;;7.22;6.57;;;;;;;13.38;95.37;101471.69;6120370;23;20049;-75
2023/05/23 10:02:42;;;;;;;9.20;6.07;;;;;;;13.57;95.38;101525.19;6083585;23;20026;-77
2023/05/23 10:05:16;;;;;;;7.13;6.43;;;;;;;13.64;94.21;101531.00;6101951;23;20029;-74
2023/05/23 10:07:44;;;;;;;6.30;5.78;;;;;;;13.71;93.25;101527.13;6083648;23;20551;-74
2023/05/23 10:10:12;;;;;;;5.80;5.40;;;;;;;13.16;91.59;101422.69;6120034;23;20021;-76
2023/05/23 10:12:44;;;;;;;6.40;5.80;;;;;;;12.99;90.28;101396.34;6095708;23;20692;-75
2023/05/23 10:15:15;;;;;;;9.13;5.40;;;;;;;13.85;89.28;101500.03;6118193;23;21203;-75
2023/05/23 10:18:00;;;;;;;5.82;5.40;;;;;;;13.95;89.79;101506.50;6121560;23;20030;-77
2023/05/23 10:20:32;;;;;;;6.18;5.72;;;;;;;13.80;89.29;101499.41;6093087;23;20045;-76
2023/05/23 10:23:00;;;;;;;7.38;6.68;;;;;;;13.64;88.62;101462.41;6119425;23;20021;-76
2023/05/23 10:25:27;;;;;;;8.77;6.85;;;;;;;13.59;88.39;101476.78;6094967;23;20331;-75
2023/05/23 10:27:59;;;;;;;6.15;5.75;;;;;;;12.73;87.81;101340.56;6092599;23;20022;-73
2023/05/23 10:30:30;;;;;;;6.63;6.13;;;;;;;12.96;88.31;101383.31;6111272;23;20702;-75
2023/05/23 10:32:57;;;;;;;6.57;6.07;;;;;;;13.72;88.35;101514.78;6120206;23;20078;-75
2023/05/23 10:35:43;;;;;;;6.47;5.90;;;;;;;13.77;87.03;101512.72;6109132;23;20006;-76
2023/05/23 10:38:29;;;;;;;6.78;6.15;;;;;;;13.95;87.49;101514.41;6099145;23;20037;-74
2023/05/23 10:41:10;;;;;;;6.35;5.85;;;;;;;13.86;85.42;101495.59;6109902;23;20013;-74
2023/05/23 10:44:01;;;;;;;7.05;5.85;;;;;;;13.48;84.67;101433.38;6093538;23;20033;-75
2023/05/23 10:46:51;;;;;;;7.10;6.25;;;;;;;14.10;85.54;101506.63;6087136;23;20085;-76
2023/05/23 10:49:18;;;;;;;6.75;5.65;;;;;;;14.09;84.16;101504.91;6096531;23;20369;-75
2023/05/23 10:51:51;;;;;;;6.63;6.13;;;;;;;13.88;83.65;101422.47;6112383;23;20104;-76
2023/05/23 10:54:21;;;;;;;8.93;6.65;;;;;;;14.81;83.22;101527.34;6084521;23;20021;-75
2023/05/23 10:57:05;;;;;;;9.98;6.38;;;;;;;14.84;80.46;101473.50;6114913;23;20103;-75
2023/05/23 10:59:31;;;;;;;6.15;5.65;;;;;;;15.41;78.33;101473.63;6118179;23;20061;-76
2023/05/23 11:02:00;;;;;;;10.40;6.35;;;;;;;14.78;75.52;101312.66;6088879;23;20034;-75
2023/05/23 11:04:29;;;;;;;12.57;5.97;;;;;;;15.46;74.24;101355.16;6109583;23;20101;-73
2023/05/23 11:06:59;;;;;;;7.22;6.38;;;;;;;15.76;72.35;101359.53;6111510;23;20092;-74
2023/05/23 11:09:26;;;;;;;7.43;6.45;;;;;;;16.13;71.93;101352.69;6112295;23;20040;-74
2023/05/23 11:11:53;;;;;;;6.82;6.20;;;;;;;16.49;70.32;101351.22;6090679;23;20699;-74
2023/05/23 11:14:31;;;;;;;6.82;6.30;;;;;;;16.64;68.50;101256.59;6090805;23;20049;-73
2023/05/23 11:17:18;;;;;;;6.85;6.20;;;;;;;17.44;66.47;101287.28;6119997;23;20013;-74
2023/05/23 11:20:08;;;;;;;7.30;6.70;;;;;;;16.83;63.77;101128.94;6113534;23;20032;-73
2023/05/23 11:22:35;;;;;;;11.50;6.72;;;;;;;16.50;64.81;101148.06;6087866;23;20476;-75
2023/05/23 11:25:08;;;;;;;9.65;6.43;;;;;;;16.54;64.80;101187.50;6117323;23;20037;-74